Du har inga inställningar för hoppväder.nu

Hoppväder.nu

Senast uppdaterat 08:26

UTC-tid

2018-12-13 kl. 07:26


Sol och måne

Solen går upp 8:50 och går ner 14:59 (beräknade cirkatider)
Nästa fullmåne blir om 9 dagar (2018-12-22)

METAR

ESOE (Örebro)
(6 minuter sedan)
ESOE 130720Z 04003KT 9999 BKN011 M00/M03 Q1034=



ESOK (Karlstad)
(6 minuter sedan)
ESOK 130720Z 01008KT 9999 OVC029 M03/M04 Q1034=



ESGR (Skövde)
(6 minuter sedan)
ESGR 130720Z AUTO 04004KT 9999 OVC009/// M01/M02 Q1032=



ESSD (Borlänge)
(6 minuter sedan)
ESSD 130720Z 32005KT 9999 OVC020 M04/M05 Q1034=



ESOW (Västerås)
(6 minuter sedan)
ESOW 130720Z AUTO 36006KT 9999 OVC003/// M02/M03 Q1034 REFZUP=



TAF

ESOE (Örebro)
(116 minuter sedan)
ESOE 130530Z 1306/1315 03006KT 9999 OVC035=



ESOK (Karlstad)
(116 minuter sedan)
ESOK 130530Z 1306/1315 01006KT 9999 OVC017 PROB40 1306/1315 BKN014=



ESGR (Skövde)
ESGR



ESSD (Borlänge)
(56 minuter sedan)
ESSD RRA 130630Z 1307/1315 35006KT 9999 OVC020=



ESOW (Västerås)
ESOW





Kodnycklar till TAF och METAR






LHP

(Örebro är område G2a i Södra delen)

ÖVERSIKT FÖR OMRÅDE B UTFÄRDAD 130436
GÄLLANDE DEN 13 DECEMBER 2018 MELLAN 05 OCH 13 UTC


Väderöversikt

Ett högtryck ligger över Sverige

Sikt under 5 kilometer eller molnbas under 1000 fot
05-13UTC: I hela området


Måttlig eller svår isbildning
05-13UTC: I hela området


Måttlig eller svår turbulens
Väntas inte förekomma under perioden



PROGNOS FÖR OMRÅDE B DEN SÖDRA DELEN UTFÄRDAD 130436
GÄLLANDE DEN 13 DECEMBER 2018 MELLAN 05 OCH 13 UTC

Måttlig eller svår turbulens
05-13UTC: I hela området: Väntas inte förekomma under perioden

Måttlig eller svår isbildning
05-13UTC: I hela området: måttlig isbildning 500ft - FL060

Sikt/Väder/Moln
05-13UTC: Område G1b,G1c: Sikt 3km - >8km i byar av snöblandat regn, snöbyar, snöfall. Molnbas <500ft - >2000ft.
Område G1a,G2a,G2b,G3b: Sikt 3km - >8km i snöfall. Molnbas <500ft - >2000ft.
Område G2c,G3a,G3c,G3d: Sikt >8km, lokalt 3km - 5km i snöfall. Molnbas <500ft, lokalt 1000ft - 1500ft.


Molnöversida
05-13UTC: Område G1a,G2a,G2b,G2c,G3a,G3b,G3c: Molnöversida FL060.
Område G1b,G1c,G3d: Molnöversida FL080.


CB/TCU Moln
05-13UTC: Område G1b,G1c,G3d: TCU
Område G1a,G2a,G2b,G2c,G3a,G3b,G3c: Väntas inte förekomma under perioden


Nollgradersisoterm
05-13UTC: Noll grader SFC - 1500ft.

Vind vid marken
05-07UTC: Område G3d: NO/3-10 knop, byar upp till 16 knop.
Område G1a: NO/2-19 knop, byar upp till 25 knop.
Område G2b: N-NO/2-12 knop, byar upp till 16 knop.
Område G3b: N-NO/1-10 knop, byar upp till 14 knop.
Område G2a: N-NO/1-11 knop, byar upp till 14 knop.
Område G1b: N-NO/3-21 knop, byar upp till 27 knop.
Område G1c: N-NO/4-22 knop, byar upp till 29 knop.

05-09UTC: Område G3a: N-NO/2-7 knop.
Område G3c: NO/2-11 knop, byar upp till 15 knop.
Område G2c: N-NO/2-6 knop.

07-09UTC: Område G2b: N-NO/3-11 knop, byar upp till 14 knop.
Område G1b: NO/3-20 knop, byar upp till 27 knop.
Område G1c: NO/4-21 knop, byar upp till 30 knop.
Område G3d: NO/3-11 knop, byar upp till 16 knop.
Område G1a: NO/3-18 knop, byar upp till 23 knop.
Område G2a: N-NO/2-10 knop, byar upp till 13 knop.
Område G3b: N-NO/2-8 knop, byar upp till 13 knop.

09-11UTC: Område G3b: N-NO/3-11 knop, byar upp till 17 knop.
Område G1a: NO/3-19 knop, byar upp till 24 knop.
Område G1c: NO/3-19 knop, byar upp till 26 knop.
Område G3d: N-NO/3-11 knop, byar upp till 18 knop.
Område G2c: N-NO/2-7 knop, byar upp till 13 knop.
Område G3c: N-NO/3-11 knop, byar upp till 16 knop.
Område G3a: N-NO/3-8 knop.
Område G2b: N-NO/3-13 knop, byar upp till 16 knop.
Område G1b: N-NO/4-19 knop, byar upp till 24 knop.
Område G2a: N-NO/2-11 knop, byar upp till 14 knop.

11-13UTC: Område G2a: N-NO/2-10 knop, byar upp till 15 knop.
Område G2c: NO/4-8 knop.
Område G3a: N-NO/3-9 knop, byar upp till 15 knop.
Område G3b: N-NO/3-10 knop, byar upp till 16 knop.
Område G2b: N-NO/3-11 knop, byar upp till 16 knop.
Område G1b: N-NO/5-21 knop, byar upp till 27 knop.
Område G1a: NO/3-20 knop, byar upp till 25 knop.
Område G3c: N-NO/4-13 knop, byar upp till 19 knop.
Område G3d: NO/4-12 knop, byar upp till 18 knop.
Område G1c: NO/4-22 knop, byar upp till 30 knop.


Vind och temperatur
2000ft:
05-07UTC: 60/25kt -5.
07-09UTC: 60/27kt -5.
09-11UTC: 60/24kt -5.
11-13UTC: 60/27kt -6.

FL50:
05-09UTC: 70/25kt -11.
09-11UTC: 70/22kt -11.
11-13UTC: 80/28kt -11.

FL100:
05-07UTC: 70/30kt -16.
07-11UTC: 70/31kt -16.
11-13UTC: 70/30kt -16.

Lägsta QNH
1029 hPa.

OBS! endast utbredd måttlig eller svår isbildning och turbulens prognostiseras i LLF.
Avsaknad av isbildning och turbulens i prognosen utesluter inte förekomst av lätt isbildning och turbulens.
För indikation på lätt isbildning, var vänlig kontrollera om prognosen för molntopp ligger högre än nollgradersisotermen.
Förekomst av TCU eller CB medför alltid en risk för måttlig eller svår isbildning och turbulens även om det inte framgår explicit av prognosen.





Spotting

Hur fungerar spotthjälpen och Vindkartan?

Markvind är ca 1-5 m/s med byar på 7 m/s.
Vind på 600 m ca 14 m/s.
Vind på 1500 m ca 13 m/s.
Vind på 3000 m ca 16 m/s.
FXB flyger ca 20 m/s över marken på finalen.
Du driver ca 718 m bakåt i frifall. (957 m)
Lämplig spot är 21 sekunder eller 421 m efter gropen.
(33 s eller 662 m)
För små grupper eller ensamhoppare bör man vänta 7-10 sekunder mellan grupperna.
För större grupper bör man vänta 15-18 sekunder mellan grupperna.


Vindkartan

Senast uppdaterad 08:26




All data kommer från LFV.se